sensor_id;sensor_type;location;lat;lon;timestamp;P1;durP1;ratioP1;P2;durP2;ratioP2
20865;SDS011;10593;48.398;10.698;2022-09-29T00:00:37;0.90;;;0.90;;
20865;SDS011;10593;48.398;10.698;2022-09-29T00:03:04;0.70;;;0.70;;
20865;SDS011;10593;48.398;10.698;2022-09-29T00:05:30;0.70;;;0.70;;
20865;SDS011;10593;48.398;10.698;2022-09-29T00:07:56;0.57;;;0.50;;
20865;SDS011;10593;48.398;10.698;2022-09-29T00:10:22;0.60;;;0.60;;
20865;SDS011;10593;48.398;10.698;2022-09-29T00:12:48;0.60;;;0.60;;
20865;SDS011;10593;48.398;10.698;2022-09-29T00:15:13;0.50;;;0.50;;
20865;SDS011;10593;48.398;10.698;2022-09-29T00:17:39;0.53;;;0.53;;
20865;SDS011;10593;48.398;10.698;2022-09-29T00:20:05;0.67;;;0.50;;
20865;SDS011;10593;48.398;10.698;2022-09-29T00:22:31;1.17;;;0.93;;
20865;SDS011;10593;48.398;10.698;2022-09-29T00:24:57;0.60;;;0.57;;
20865;SDS011;10593;48.398;10.698;2022-09-29T00:27:23;0.57;;;0.57;;
20865;SDS011;10593;48.398;10.698;2022-09-29T00:29:48;1.00;;;0.90;;
20865;SDS011;10593;48.398;10.698;2022-09-29T00:32:14;0.50;;;0.50;;
20865;SDS011;10593;48.398;10.698;2022-09-29T00:34:40;0.53;;;0.53;;
20865;SDS011;10593;48.398;10.698;2022-09-29T00:37:05;0.63;;;0.63;;
20865;SDS011;10593;48.398;10.698;2022-09-29T00:39:31;2.67;;;0.60;;
20865;SDS011;10593;48.398;10.698;2022-09-29T00:41:57;0.80;;;0.80;;
20865;SDS011;10593;48.398;10.698;2022-09-29T00:47:39;1.17;;;0.60;;
20865;SDS011;10593;48.398;10.698;2022-09-29T00:50:13;0.80;;;0.80;;
20865;SDS011;10593;48.398;10.698;2022-09-29T00:52:53;1.43;;;0.80;;
20865;SDS011;10593;48.398;10.698;2022-09-29T00:55:30;0.53;;;0.53;;
20865;SDS011;10593;48.398;10.698;2022-09-29T00:58:09;0.50;;;0.50;;
20865;SDS011;10593;48.398;10.698;2022-09-29T01:00:52;0.80;;;0.80;;
20865;SDS011;10593;48.398;10.698;2022-09-29T01:03:19;0.60;;;0.60;;
20865;SDS011;10593;48.398;10.698;2022-09-29T01:06:00;0.80;;;0.80;;
20865;SDS011;10593;48.398;10.698;2022-09-29T01:11:22;1.37;;;0.83;;
20865;SDS011;10593;48.398;10.698;2022-09-29T01:13:49;0.87;;;0.87;;
20865;SDS011;10593;48.398;10.698;2022-09-29T01:16:16;0.80;;;0.80;;
20865;SDS011;10593;48.398;10.698;2022-09-29T01:18:42;0.90;;;0.90;;
20865;SDS011;10593;48.398;10.698;2022-09-29T01:21:19;0.80;;;0.80;;
20865;SDS011;10593;48.398;10.698;2022-09-29T01:24:18;1.00;;;1.00;;
20865;SDS011;10593;48.398;10.698;2022-09-29T01:30:17;0.80;;;0.80;;
20865;SDS011;10593;48.398;10.698;2022-09-29T01:33:15;0.73;;;0.73;;
20865;SDS011;10593;48.398;10.698;2022-09-29T01:44:44;0.80;;;0.80;;
20865;SDS011;10593;48.398;10.698;2022-09-29T01:47:24;1.10;;;1.10;;
20865;SDS011;10593;48.398;10.698;2022-09-29T01:50:10;0.90;;;0.90;;
20865;SDS011;10593;48.398;10.698;2022-09-29T01:52:47;1.10;;;1.10;;
20865;SDS011;10593;48.398;10.698;2022-09-29T01:55:24;1.00;;;1.00;;
20865;SDS011;10593;48.398;10.698;2022-09-29T01:57:58;1.43;;;1.33;;
20865;SDS011;10593;48.398;10.698;2022-09-29T02:00:30;1.57;;;1.00;;
20865;SDS011;10593;48.398;10.698;2022-09-29T02:03:07;1.00;;;1.00;;
20865;SDS011;10593;48.398;10.698;2022-09-29T02:05:42;1.00;;;1.00;;
20865;SDS011;10593;48.398;10.698;2022-09-29T02:08:18;1.13;;;0.90;;
20865;SDS011;10593;48.398;10.698;2022-09-29T02:11:05;1.93;;;0.93;;
20865;SDS011;10593;48.398;10.698;2022-09-29T02:13:35;0.70;;;0.70;;
20865;SDS011;10593;48.398;10.698;2022-09-29T02:16:08;1.90;;;0.80;;
20865;SDS011;10593;48.398;10.698;2022-09-29T02:18:43;3.17;;;1.73;;
20865;SDS011;10593;48.398;10.698;2022-09-29T02:21:26;0.80;;;0.80;;
20865;SDS011;10593;48.398;10.698;2022-09-29T02:23:52;0.63;;;0.60;;
20865;SDS011;10593;48.398;10.698;2022-09-29T02:26:19;0.60;;;0.60;;
20865;SDS011;10593;48.398;10.698;2022-09-29T02:28:48;0.80;;;0.80;;
20865;SDS011;10593;48.398;10.698;2022-09-29T02:31:14;1.10;;;1.10;;
20865;SDS011;10593;48.398;10.698;2022-09-29T02:33:40;0.73;;;0.73;;
20865;SDS011;10593;48.398;10.698;2022-09-29T02:36:14;0.70;;;0.70;;
20865;SDS011;10593;48.398;10.698;2022-09-29T02:44:45;0.83;;;0.83;;
20865;SDS011;10593;48.398;10.698;2022-09-29T02:47:50;0.90;;;0.90;;
20865;SDS011;10593;48.398;10.698;2022-09-29T02:50:42;1.13;;;1.13;;
20865;SDS011;10593;48.398;10.698;2022-09-29T02:59:06;1.20;;;1.20;;
20865;SDS011;10593;48.398;10.698;2022-09-29T03:01:51;1.27;;;1.17;;
20865;SDS011;10593;48.398;10.698;2022-09-29T03:04:21;11.80;;;10.70;;
20865;SDS011;10593;48.398;10.698;2022-09-29T03:06:50;10.23;;;9.33;;
20865;SDS011;10593;48.398;10.698;2022-09-29T03:09:16;4.90;;;4.50;;
20865;SDS011;10593;48.398;10.698;2022-09-29T03:11:42;13.57;;;3.37;;
20865;SDS011;10593;48.398;10.698;2022-09-29T03:14:08;1.90;;;1.80;;
20865;SDS011;10593;48.398;10.698;2022-09-29T03:16:34;1.40;;;1.40;;
20865;SDS011;10593;48.398;10.698;2022-09-29T03:19:01;1.80;;;1.30;;
20865;SDS011;10593;48.398;10.698;2022-09-29T03:21:31;1.03;;;1.03;;
20865;SDS011;10593;48.398;10.698;2022-09-29T03:23:57;1.00;;;1.00;;
20865;SDS011;10593;48.398;10.698;2022-09-29T03:26:23;0.70;;;0.70;;
20865;SDS011;10593;48.398;10.698;2022-09-29T03:28:50;0.87;;;0.87;;
20865;SDS011;10593;48.398;10.698;2022-09-29T03:31:16;0.90;;;0.90;;
20865;SDS011;10593;48.398;10.698;2022-09-29T03:33:42;0.90;;;0.90;;
20865;SDS011;10593;48.398;10.698;2022-09-29T03:36:08;1.00;;;1.00;;
20865;SDS011;10593;48.398;10.698;2022-09-29T03:38:35;0.90;;;0.90;;
20865;SDS011;10593;48.398;10.698;2022-09-29T03:41:02;0.90;;;0.90;;
20865;SDS011;10593;48.398;10.698;2022-09-29T03:43:28;1.10;;;1.00;;
20865;SDS011;10593;48.398;10.698;2022-09-29T03:45:54;0.93;;;0.93;;
20865;SDS011;10593;48.398;10.698;2022-09-29T03:48:21;1.00;;;1.00;;
20865;SDS011;10593;48.398;10.698;2022-09-29T03:50:48;1.07;;;1.07;;
20865;SDS011;10593;48.398;10.698;2022-09-29T03:53:15;0.90;;;0.90;;
20865;SDS011;10593;48.398;10.698;2022-09-29T03:55:45;1.60;;;1.10;;
20865;SDS011;10593;48.398;10.698;2022-09-29T03:58:12;1.47;;;1.10;;
20865;SDS011;10593;48.398;10.698;2022-09-29T04:00:39;1.73;;;1.00;;
20865;SDS011;10593;48.398;10.698;2022-09-29T04:03:05;0.90;;;0.90;;
20865;SDS011;10593;48.398;10.698;2022-09-29T04:05:31;0.90;;;0.90;;
20865;SDS011;10593;48.398;10.698;2022-09-29T04:07:58;1.00;;;1.00;;
20865;SDS011;10593;48.398;10.698;2022-09-29T04:10:24;0.93;;;0.93;;
20865;SDS011;10593;48.398;10.698;2022-09-29T04:12:49;1.00;;;1.00;;
20865;SDS011;10593;48.398;10.698;2022-09-29T04:15:15;1.27;;;1.17;;
20865;SDS011;10593;48.398;10.698;2022-09-29T04:17:41;0.93;;;0.93;;
20865;SDS011;10593;48.398;10.698;2022-09-29T04:20:07;1.07;;;1.03;;
20865;SDS011;10593;48.398;10.698;2022-09-29T04:22:33;1.07;;;1.07;;
20865;SDS011;10593;48.398;10.698;2022-09-29T04:24:58;2.37;;;1.13;;
20865;SDS011;10593;48.398;10.698;2022-09-29T04:27:24;1.30;;;1.20;;
20865;SDS011;10593;48.398;10.698;2022-09-29T04:29:49;0.90;;;0.90;;
20865;SDS011;10593;48.398;10.698;2022-09-29T04:32:18;0.93;;;0.93;;
20865;SDS011;10593;48.398;10.698;2022-09-29T04:34:45;1.90;;;1.33;;
20865;SDS011;10593;48.398;10.698;2022-09-29T04:37:12;1.00;;;1.00;;
20865;SDS011;10593;48.398;10.698;2022-09-29T04:39:38;2.27;;;0.90;;
20865;SDS011;10593;48.398;10.698;2022-09-29T04:42:04;1.20;;;1.20;;
20865;SDS011;10593;48.398;10.698;2022-09-29T04:44:30;1.30;;;1.20;;
20865;SDS011;10593;48.398;10.698;2022-09-29T04:46:58;1.00;;;1.00;;
20865;SDS011;10593;48.398;10.698;2022-09-29T04:49:24;0.90;;;0.90;;
20865;SDS011;10593;48.398;10.698;2022-09-29T04:51:49;1.10;;;1.10;;
20865;SDS011;10593;48.398;10.698;2022-09-29T04:54:15;1.10;;;1.10;;
20865;SDS011;10593;48.398;10.698;2022-09-29T04:56:41;2.10;;;1.07;;
20865;SDS011;10593;48.398;10.698;2022-09-29T04:59:07;1.47;;;1.37;;
20865;SDS011;10593;48.398;10.698;2022-09-29T05:01:35;1.20;;;1.20;;
20865;SDS011;10593;48.398;10.698;2022-09-29T05:04:01;1.33;;;1.33;;
20865;SDS011;10593;48.398;10.698;2022-09-29T05:06:26;1.20;;;1.20;;
20865;SDS011;10593;48.398;10.698;2022-09-29T05:08:52;1.63;;;1.53;;
20865;SDS011;10593;48.398;10.698;2022-09-29T05:11:18;1.50;;;1.50;;
20865;SDS011;10593;48.398;10.698;2022-09-29T05:13:47;1.60;;;1.50;;
20865;SDS011;10593;48.398;10.698;2022-09-29T05:16:14;1.83;;;1.37;;
20865;SDS011;10593;48.398;10.698;2022-09-29T05:18:40;2.03;;;1.60;;
20865;SDS011;10593;48.398;10.698;2022-09-29T05:21:06;1.67;;;1.57;;
20865;SDS011;10593;48.398;10.698;2022-09-29T05:23:33;1.37;;;1.27;;
20865;SDS011;10593;48.398;10.698;2022-09-29T05:26:03;1.33;;;1.23;;
20865;SDS011;10593;48.398;10.698;2022-09-29T05:28:31;1.10;;;1.10;;
20865;SDS011;10593;48.398;10.698;2022-09-29T05:31:00;1.30;;;1.27;;
20865;SDS011;10593;48.398;10.698;2022-09-29T05:33:28;1.60;;;1.50;;
20865;SDS011;10593;48.398;10.698;2022-09-29T05:35:54;1.23;;;1.23;;
20865;SDS011;10593;48.398;10.698;2022-09-29T05:38:20;1.67;;;1.30;;
20865;SDS011;10593;48.398;10.698;2022-09-29T05:40:47;1.40;;;1.30;;
20865;SDS011;10593;48.398;10.698;2022-09-29T05:43:13;1.17;;;1.17;;
20865;SDS011;10593;48.398;10.698;2022-09-29T05:45:39;1.20;;;1.20;;
20865;SDS011;10593;48.398;10.698;2022-09-29T05:48:05;1.80;;;1.50;;
20865;SDS011;10593;48.398;10.698;2022-09-29T05:50:30;2.60;;;1.47;;
20865;SDS011;10593;48.398;10.698;2022-09-29T05:53:01;1.60;;;1.50;;
20865;SDS011;10593;48.398;10.698;2022-09-29T05:55:27;1.50;;;1.40;;
20865;SDS011;10593;48.398;10.698;2022-09-29T05:57:53;4.50;;;1.93;;
20865;SDS011;10593;48.398;10.698;2022-09-29T06:00:19;2.03;;;1.90;;
20865;SDS011;10593;48.398;10.698;2022-09-29T06:02:44;2.20;;;2.10;;
20865;SDS011;10593;48.398;10.698;2022-09-29T06:05:10;2.27;;;2.17;;
20865;SDS011;10593;48.398;10.698;2022-09-29T06:07:37;2.20;;;2.10;;
20865;SDS011;10593;48.398;10.698;2022-09-29T06:10:03;2.33;;;1.83;;
20865;SDS011;10593;48.398;10.698;2022-09-29T06:12:32;5.87;;;1.87;;
20865;SDS011;10593;48.398;10.698;2022-09-29T06:15:04;1.80;;;1.70;;
20865;SDS011;10593;48.398;10.698;2022-09-29T06:17:31;2.67;;;1.90;;
20865;SDS011;10593;48.398;10.698;2022-09-29T06:19:58;1.80;;;1.70;;
20865;SDS011;10593;48.398;10.698;2022-09-29T06:22:25;2.27;;;2.17;;
20865;SDS011;10593;48.398;10.698;2022-09-29T06:24:51;2.00;;;1.90;;
20865;SDS011;10593;48.398;10.698;2022-09-29T06:27:18;3.17;;;1.97;;
20865;SDS011;10593;48.398;10.698;2022-09-29T06:29:44;2.50;;;2.30;;
20865;SDS011;10593;48.398;10.698;2022-09-29T06:32:09;1.90;;;1.80;;
20865;SDS011;10593;48.398;10.698;2022-09-29T06:34:35;3.77;;;3.47;;
20865;SDS011;10593;48.398;10.698;2022-09-29T06:37:21;4.93;;;4.53;;
20865;SDS011;10593;48.398;10.698;2022-09-29T06:39:59;6.37;;;5.77;;
20865;SDS011;10593;48.398;10.698;2022-09-29T06:42:26;6.60;;;6.00;;
20865;SDS011;10593;48.398;10.698;2022-09-29T06:44:52;6.00;;;5.40;;
20865;SDS011;10593;48.398;10.698;2022-09-29T06:47:19;5.10;;;4.70;;
20865;SDS011;10593;48.398;10.698;2022-09-29T06:49:44;4.33;;;3.93;;
20865;SDS011;10593;48.398;10.698;2022-09-29T06:52:10;4.23;;;3.93;;
20865;SDS011;10593;48.398;10.698;2022-09-29T06:54:36;3.90;;;3.60;;
20865;SDS011;10593;48.398;10.698;2022-09-29T06:57:01;3.93;;;3.63;;
20865;SDS011;10593;48.398;10.698;2022-09-29T06:59:27;3.80;;;3.50;;
20865;SDS011;10593;48.398;10.698;2022-09-29T07:01:53;4.07;;;3.70;;
20865;SDS011;10593;48.398;10.698;2022-09-29T07:04:19;3.20;;;3.00;;
20865;SDS011;10593;48.398;10.698;2022-09-29T07:06:45;3.00;;;2.80;;
20865;SDS011;10593;48.398;10.698;2022-09-29T07:09:12;3.20;;;2.93;;
20865;SDS011;10593;48.398;10.698;2022-09-29T07:11:40;3.53;;;3.33;;
20865;SDS011;10593;48.398;10.698;2022-09-29T07:14:12;4.40;;;2.97;;
20865;SDS011;10593;48.398;10.698;2022-09-29T07:16:39;2.90;;;2.70;;
20865;SDS011;10593;48.398;10.698;2022-09-29T07:19:06;2.57;;;2.47;;
20865;SDS011;10593;48.398;10.698;2022-09-29T07:21:33;2.70;;;2.50;;
20865;SDS011;10593;48.398;10.698;2022-09-29T07:23:59;2.07;;;1.97;;
20865;SDS011;10593;48.398;10.698;2022-09-29T07:26:25;2.20;;;2.10;;
20865;SDS011;10593;48.398;10.698;2022-09-29T07:28:51;2.53;;;2.33;;
20865;SDS011;10593;48.398;10.698;2022-09-29T07:31:18;2.20;;;2.10;;
20865;SDS011;10593;48.398;10.698;2022-09-29T07:33:46;2.37;;;2.17;;
20865;SDS011;10593;48.398;10.698;2022-09-29T07:36:15;1.73;;;1.63;;
20865;SDS011;10593;48.398;10.698;2022-09-29T07:38:46;2.20;;;2.10;;
20865;SDS011;10593;48.398;10.698;2022-09-29T07:41:14;1.90;;;1.80;;
20865;SDS011;10593;48.398;10.698;2022-09-29T07:43:42;1.83;;;1.73;;
20865;SDS011;10593;48.398;10.698;2022-09-29T07:46:08;2.00;;;1.90;;
20865;SDS011;10593;48.398;10.698;2022-09-29T07:48:34;1.90;;;1.80;;
20865;SDS011;10593;48.398;10.698;2022-09-29T07:51:12;2.20;;;2.10;;
20865;SDS011;10593;48.398;10.698;2022-09-29T07:53:43;1.80;;;1.70;;
20865;SDS011;10593;48.398;10.698;2022-09-29T07:56:15;1.70;;;1.60;;
20865;SDS011;10593;48.398;10.698;2022-09-29T07:58:44;1.80;;;1.70;;
20865;SDS011;10593;48.398;10.698;2022-09-29T08:01:13;1.80;;;1.70;;
20865;SDS011;10593;48.398;10.698;2022-09-29T08:03:42;1.73;;;1.63;;
20865;SDS011;10593;48.398;10.698;2022-09-29T08:06:13;1.60;;;1.50;;
20865;SDS011;10593;48.398;10.698;2022-09-29T08:08:39;1.43;;;1.40;;
20865;SDS011;10593;48.398;10.698;2022-09-29T08:11:07;1.97;;;1.47;;
20865;SDS011;10593;48.398;10.698;2022-09-29T08:13:39;1.57;;;1.47;;
20865;SDS011;10593;48.398;10.698;2022-09-29T08:16:06;1.73;;;1.63;;
20865;SDS011;10593;48.398;10.698;2022-09-29T08:18:36;1.57;;;1.47;;
20865;SDS011;10593;48.398;10.698;2022-09-29T08:21:03;1.20;;;1.20;;
20865;SDS011;10593;48.398;10.698;2022-09-29T08:23:33;1.17;;;1.17;;
20865;SDS011;10593;48.398;10.698;2022-09-29T08:26:02;1.50;;;1.40;;
20865;SDS011;10593;48.398;10.698;2022-09-29T08:28:30;1.20;;;1.20;;
20865;SDS011;10593;48.398;10.698;2022-09-29T08:31:07;1.13;;;1.13;;
20865;SDS011;10593;48.398;10.698;2022-09-29T08:33:44;0.87;;;0.87;;
20865;SDS011;10593;48.398;10.698;2022-09-29T08:36:11;1.10;;;1.10;;
20865;SDS011;10593;48.398;10.698;2022-09-29T08:38:50;1.00;;;0.97;;
20865;SDS011;10593;48.398;10.698;2022-09-29T08:43:53;1.03;;;1.03;;
20865;SDS011;10593;48.398;10.698;2022-09-29T08:46:37;0.80;;;0.80;;
20865;SDS011;10593;48.398;10.698;2022-09-29T08:49:19;1.10;;;1.10;;
20865;SDS011;10593;48.398;10.698;2022-09-29T08:51:57;1.00;;;1.00;;
20865;SDS011;10593;48.398;10.698;2022-09-29T08:55:19;1.43;;;1.17;;
20865;SDS011;10593;48.398;10.698;2022-09-29T08:57:50;1.37;;;0.90;;
20865;SDS011;10593;48.398;10.698;2022-09-29T09:00:25;0.77;;;0.77;;
20865;SDS011;10593;48.398;10.698;2022-09-29T09:08:49;0.93;;;0.93;;
20865;SDS011;10593;48.398;10.698;2022-09-29T09:18:15;0.80;;;0.80;;
20865;SDS011;10593;48.398;10.698;2022-09-29T09:21:00;1.60;;;1.00;;
20865;SDS011;10593;48.398;10.698;2022-09-29T09:23:52;1.17;;;1.07;;
20865;SDS011;10593;48.398;10.698;2022-09-29T09:26:37;0.80;;;0.80;;
20865;SDS011;10593;48.398;10.698;2022-09-29T09:29:16;1.00;;;1.00;;
20865;SDS011;10593;48.398;10.698;2022-09-29T09:31:56;0.97;;;0.97;;
20865;SDS011;10593;48.398;10.698;2022-09-29T09:34:32;1.10;;;1.10;;
20865;SDS011;10593;48.398;10.698;2022-09-29T09:42:36;1.10;;;1.10;;
20865;SDS011;10593;48.398;10.698;2022-09-29T09:45:17;1.37;;;1.27;;
20865;SDS011;10593;48.398;10.698;2022-09-29T09:50:53;1.40;;;1.30;;
20865;SDS011;10593;48.398;10.698;2022-09-29T09:53:21;1.40;;;1.20;;
20865;SDS011;10593;48.398;10.698;2022-09-29T10:02:26;1.60;;;1.60;;
20865;SDS011;10593;48.398;10.698;2022-09-29T10:04:55;1.67;;;1.50;;
20865;SDS011;10593;48.398;10.698;2022-09-29T10:07:22;1.77;;;1.67;;
20865;SDS011;10593;48.398;10.698;2022-09-29T10:09:52;2.13;;;2.03;;
20865;SDS011;10593;48.398;10.698;2022-09-29T10:12:19;1.77;;;1.67;;
20865;SDS011;10593;48.398;10.698;2022-09-29T10:14:50;2.00;;;1.90;;
20865;SDS011;10593;48.398;10.698;2022-09-29T10:17:38;2.07;;;1.97;;
20865;SDS011;10593;48.398;10.698;2022-09-29T10:20:10;2.00;;;1.90;;
20865;SDS011;10593;48.398;10.698;2022-09-29T10:22:36;2.67;;;2.47;;
20865;SDS011;10593;48.398;10.698;2022-09-29T10:25:07;2.67;;;2.47;;
20865;SDS011;10593;48.398;10.698;2022-09-29T10:27:38;2.23;;;2.03;;
20865;SDS011;10593;48.398;10.698;2022-09-29T10:30:21;2.20;;;2.10;;
20865;SDS011;10593;48.398;10.698;2022-09-29T10:33:00;1.97;;;1.83;;
20865;SDS011;10593;48.398;10.698;2022-09-29T10:35:36;1.97;;;1.87;;
20865;SDS011;10593;48.398;10.698;2022-09-29T10:38:07;2.10;;;1.90;;
20865;SDS011;10593;48.398;10.698;2022-09-29T10:40:58;1.70;;;1.60;;
20865;SDS011;10593;48.398;10.698;2022-09-29T10:43:36;1.50;;;1.40;;
20865;SDS011;10593;48.398;10.698;2022-09-29T10:49:07;1.00;;;1.00;;
20865;SDS011;10593;48.398;10.698;2022-09-29T10:51:51;1.60;;;1.20;;
20865;SDS011;10593;48.398;10.698;2022-09-29T10:54:29;0.93;;;0.93;;
20865;SDS011;10593;48.398;10.698;2022-09-29T10:57:10;0.80;;;0.80;;
20865;SDS011;10593;48.398;10.698;2022-09-29T10:59:46;0.80;;;0.80;;
20865;SDS011;10593;48.398;10.698;2022-09-29T11:02:17;1.13;;;1.00;;
20865;SDS011;10593;48.398;10.698;2022-09-29T11:04:47;1.23;;;0.80;;
20865;SDS011;10593;48.398;10.698;2022-09-29T11:07:14;0.90;;;0.90;;
20865;SDS011;10593;48.398;10.698;2022-09-29T11:09:41;1.13;;;0.80;;
20865;SDS011;10593;48.398;10.698;2022-09-29T11:15:48;0.77;;;0.70;;
20865;SDS011;10593;48.398;10.698;2022-09-29T11:18:16;0.80;;;0.80;;
20865;SDS011;10593;48.398;10.698;2022-09-29T11:23:54;0.60;;;0.60;;
20865;SDS011;10593;48.398;10.698;2022-09-29T11:26:35;1.80;;;0.67;;
20865;SDS011;10593;48.398;10.698;2022-09-29T11:32:26;0.80;;;0.80;;
20865;SDS011;10593;48.398;10.698;2022-09-29T11:35:43;0.90;;;0.90;;
20865;SDS011;10593;48.398;10.698;2022-09-29T11:41:59;0.77;;;0.77;;
20865;SDS011;10593;48.398;10.698;2022-09-29T11:44:58;1.03;;;0.97;;
20865;SDS011;10593;48.398;10.698;2022-09-29T11:50:53;1.07;;;1.07;;
20865;SDS011;10593;48.398;10.698;2022-09-29T11:54:12;1.87;;;1.50;;
20865;SDS011;10593;48.398;10.698;2022-09-29T11:57:29;1.47;;;1.10;;
20865;SDS011;10593;48.398;10.698;2022-09-29T12:00:19;1.23;;;1.23;;
20865;SDS011;10593;48.398;10.698;2022-09-29T12:10:11;0.73;;;0.73;;
20865;SDS011;10593;48.398;10.698;2022-09-29T12:14:56;1.00;;;1.00;;
20865;SDS011;10593;48.398;10.698;2022-09-29T12:17:40;0.90;;;0.90;;
20865;SDS011;10593;48.398;10.698;2022-09-29T12:20:17;1.20;;;0.73;;
20865;SDS011;10593;48.398;10.698;2022-09-29T12:22:53;0.80;;;0.70;;
20865;SDS011;10593;48.398;10.698;2022-09-29T12:25:25;0.80;;;0.80;;
20865;SDS011;10593;48.398;10.698;2022-09-29T12:28:01;0.70;;;0.70;;
20865;SDS011;10593;48.398;10.698;2022-09-29T12:33:25;0.60;;;0.60;;
20865;SDS011;10593;48.398;10.698;2022-09-29T12:36:17;0.43;;;0.43;;
20865;SDS011;10593;48.398;10.698;2022-09-29T12:45:05;1.60;;;0.57;;
20865;SDS011;10593;48.398;10.698;2022-09-29T12:48:11;1.77;;;0.60;;
20865;SDS011;10593;48.398;10.698;2022-09-29T13:02:44;0.50;;;0.50;;
20865;SDS011;10593;48.398;10.698;2022-09-29T13:11:20;0.57;;;0.57;;
20865;SDS011;10593;48.398;10.698;2022-09-29T13:17:28;0.40;;;0.40;;
20865;SDS011;10593;48.398;10.698;2022-09-29T13:26:12;0.50;;;0.50;;
20865;SDS011;10593;48.398;10.698;2022-09-29T13:29:01;0.30;;;0.30;;
20865;SDS011;10593;48.398;10.698;2022-09-29T13:31:38;0.50;;;0.50;;
20865;SDS011;10593;48.398;10.698;2022-09-29T13:34:05;0.37;;;0.37;;
20865;SDS011;10593;48.398;10.698;2022-09-29T13:36:48;1.67;;;0.50;;
20865;SDS011;10593;48.398;10.698;2022-09-29T13:39:32;0.40;;;0.40;;
20865;SDS011;10593;48.398;10.698;2022-09-29T13:42:24;0.20;;;0.20;;
20865;SDS011;10593;48.398;10.698;2022-09-29T13:45:13;1.20;;;0.20;;
20865;SDS011;10593;48.398;10.698;2022-09-29T13:47:49;1.37;;;0.37;;
20865;SDS011;10593;48.398;10.698;2022-09-29T13:55:53;0.70;;;0.70;;
20865;SDS011;10593;48.398;10.698;2022-09-29T13:58:33;0.87;;;0.87;;
20865;SDS011;10593;48.398;10.698;2022-09-29T14:01:29;0.57;;;0.30;;
20865;SDS011;10593;48.398;10.698;2022-09-29T14:07:01;1.43;;;0.60;;
20865;SDS011;10593;48.398;10.698;2022-09-29T14:09:30;0.70;;;0.70;;
20865;SDS011;10593;48.398;10.698;2022-09-29T14:12:02;0.70;;;0.70;;
20865;SDS011;10593;48.398;10.698;2022-09-29T14:14:41;1.13;;;1.03;;
20865;SDS011;10593;48.398;10.698;2022-09-29T14:20:03;0.30;;;0.30;;
20865;SDS011;10593;48.398;10.698;2022-09-29T14:27:38;2.00;;;1.90;;
20865;SDS011;10593;48.398;10.698;2022-09-29T14:33:13;1.50;;;1.40;;
20865;SDS011;10593;48.398;10.698;2022-09-29T14:35:53;0.90;;;0.90;;
20865;SDS011;10593;48.398;10.698;2022-09-29T14:38:24;0.30;;;0.30;;
20865;SDS011;10593;48.398;10.698;2022-09-29T14:41:00;1.07;;;0.50;;
20865;SDS011;10593;48.398;10.698;2022-09-29T14:43:45;0.40;;;0.40;;
20865;SDS011;10593;48.398;10.698;2022-09-29T15:03:54;0.20;;;0.20;;
20865;SDS011;10593;48.398;10.698;2022-09-29T15:06:28;1.50;;;0.23;;
20865;SDS011;10593;48.398;10.698;2022-09-29T15:08:56;1.37;;;0.40;;
20865;SDS011;10593;48.398;10.698;2022-09-29T15:11:51;0.50;;;0.50;;
20865;SDS011;10593;48.398;10.698;2022-09-29T15:14:32;0.57;;;0.33;;
20865;SDS011;10593;48.398;10.698;2022-09-29T15:20:13;0.30;;;0.30;;
20865;SDS011;10593;48.398;10.698;2022-09-29T15:25:37;0.40;;;0.40;;
20865;SDS011;10593;48.398;10.698;2022-09-29T15:28:40;0.50;;;0.50;;
20865;SDS011;10593;48.398;10.698;2022-09-29T15:31:07;0.43;;;0.43;;
20865;SDS011;10593;48.398;10.698;2022-09-29T15:33:41;0.40;;;0.40;;
20865;SDS011;10593;48.398;10.698;2022-09-29T15:36:16;0.97;;;0.40;;
20865;SDS011;10593;48.398;10.698;2022-09-29T15:38:52;1.23;;;0.40;;
20865;SDS011;10593;48.398;10.698;2022-09-29T15:41:24;5.00;;;0.90;;
20865;SDS011;10593;48.398;10.698;2022-09-29T15:43:56;0.70;;;0.60;;
20865;SDS011;10593;48.398;10.698;2022-09-29T15:51:39;1.07;;;1.03;;
20865;SDS011;10593;48.398;10.698;2022-09-29T15:54:10;0.80;;;0.80;;
20865;SDS011;10593;48.398;10.698;2022-09-29T15:56:38;4.07;;;3.77;;
20865;SDS011;10593;48.398;10.698;2022-09-29T15:59:38;2.20;;;2.10;;
20865;SDS011;10593;48.398;10.698;2022-09-29T16:02:16;1.40;;;1.40;;
20865;SDS011;10593;48.398;10.698;2022-09-29T16:04:55;1.20;;;1.20;;
20865;SDS011;10593;48.398;10.698;2022-09-29T16:07:37;1.40;;;1.30;;
20865;SDS011;10593;48.398;10.698;2022-09-29T16:10:16;1.60;;;1.50;;
20865;SDS011;10593;48.398;10.698;2022-09-29T16:12:55;2.20;;;1.90;;
20865;SDS011;10593;48.398;10.698;2022-09-29T16:15:32;2.83;;;2.33;;
20865;SDS011;10593;48.398;10.698;2022-09-29T16:18:15;2.60;;;2.40;;
20865;SDS011;10593;48.398;10.698;2022-09-29T16:21:06;2.90;;;2.47;;
20865;SDS011;10593;48.398;10.698;2022-09-29T16:26:45;2.23;;;2.13;;
20865;SDS011;10593;48.398;10.698;2022-09-29T16:31:40;2.20;;;2.10;;
20865;SDS011;10593;48.398;10.698;2022-09-29T16:36:50;2.10;;;2.00;;
20865;SDS011;10593;48.398;10.698;2022-09-29T16:39:28;3.37;;;3.17;;
20865;SDS011;10593;48.398;10.698;2022-09-29T16:42:16;4.10;;;3.70;;
20865;SDS011;10593;48.398;10.698;2022-09-29T16:44:47;3.73;;;3.43;;
20865;SDS011;10593;48.398;10.698;2022-09-29T16:47:15;4.57;;;3.90;;
20865;SDS011;10593;48.398;10.698;2022-09-29T16:49:50;6.07;;;4.67;;
20865;SDS011;10593;48.398;10.698;2022-09-29T16:52:39;6.37;;;4.87;;
20865;SDS011;10593;48.398;10.698;2022-09-29T16:55:17;5.13;;;4.47;;
20865;SDS011;10593;48.398;10.698;2022-09-29T16:58:29;6.13;;;4.57;;
20865;SDS011;10593;48.398;10.698;2022-09-29T17:00:39;4.13;;;3.83;;
20865;SDS011;10593;48.398;10.698;2022-09-29T17:03:08;3.23;;;2.93;;
20865;SDS011;10593;48.398;10.698;2022-09-29T17:05:38;2.60;;;2.40;;
20865;SDS011;10593;48.398;10.698;2022-09-29T17:08:17;2.80;;;2.60;;
20865;SDS011;10593;48.398;10.698;2022-09-29T17:10:53;7.90;;;6.23;;
20865;SDS011;10593;48.398;10.698;2022-09-29T17:13:21;11.80;;;7.10;;
20865;SDS011;10593;48.398;10.698;2022-09-29T17:15:48;11.23;;;8.80;;
20865;SDS011;10593;48.398;10.698;2022-09-29T17:18:17;12.30;;;9.23;;
20865;SDS011;10593;48.398;10.698;2022-09-29T17:20:44;11.03;;;8.37;;
20865;SDS011;10593;48.398;10.698;2022-09-29T17:23:11;8.20;;;7.10;;
20865;SDS011;10593;48.398;10.698;2022-09-29T17:25:40;8.83;;;6.63;;
20865;SDS011;10593;48.398;10.698;2022-09-29T17:28:11;5.90;;;4.63;;
20865;SDS011;10593;48.398;10.698;2022-09-29T17:30:48;4.10;;;2.83;;
20865;SDS011;10593;48.398;10.698;2022-09-29T17:33:19;1.83;;;1.50;;
20865;SDS011;10593;48.398;10.698;2022-09-29T17:35:45;0.87;;;0.87;;
20865;SDS011;10593;48.398;10.698;2022-09-29T17:38:15;0.87;;;0.87;;
20865;SDS011;10593;48.398;10.698;2022-09-29T17:40:49;0.87;;;0.87;;
20865;SDS011;10593;48.398;10.698;2022-09-29T17:43:26;1.50;;;1.40;;
20865;SDS011;10593;48.398;10.698;2022-09-29T17:45:55;1.43;;;1.30;;
20865;SDS011;10593;48.398;10.698;2022-09-29T17:48:22;1.27;;;0.97;;
20865;SDS011;10593;48.398;10.698;2022-09-29T17:50:53;0.90;;;0.90;;
20865;SDS011;10593;48.398;10.698;2022-09-29T17:53:22;1.17;;;1.17;;
20865;SDS011;10593;48.398;10.698;2022-09-29T17:55:49;0.90;;;0.90;;
20865;SDS011;10593;48.398;10.698;2022-09-29T17:58:20;0.80;;;0.80;;
20865;SDS011;10593;48.398;10.698;2022-09-29T18:00:47;1.03;;;0.90;;
20865;SDS011;10593;48.398;10.698;2022-09-29T18:03:17;0.90;;;0.90;;
20865;SDS011;10593;48.398;10.698;2022-09-29T18:05:46;0.70;;;0.70;;
20865;SDS011;10593;48.398;10.698;2022-09-29T18:08:23;1.33;;;1.23;;